Fairfax, IA (52228)

10:36 PM CDT on August 22, 2014 (GMT -0500)
Stoney Point Heights | Change Station
CLOSE
Current Station
Personal Weather Station
Location: Cedar Rapids, IA
Elevation: 833 ft
Nearby Weather Stations

Elev 833 ft 41.95 °N, 91.76 °W | Updated 1 second ago

Scattered Clouds
Scattered Clouds
78.6 °F
Feels Like 79 °F
N
0.0
Wind Variable Wind from SSE
Gusts 0.0 mph

Today
High -- | Low -- °F
--% Chance of Precip.
Yesterday
High -- | Low -- °F
Precip. -- in
6:22 AM 7:56 PM
Waning Crescent, 5% visible
Pressure 29.94 in
Visibility 9.0 miles
Clouds Scattered Clouds 10000 ft
Heat Index 79 °F
Dew Point 54 °F
Humidity 43%
Rainfall 0.00 in
Snow Depth Not available.
UV 0 out of 12
Pollen 6.70 out of 12
Air Quality Not available.
Flu Activity Not available.
METAR KCID 230252Z 00000KT 9SM SCT100 24/24 A2996 RMK AO2 SLP137 T02390239 50009

More Conditions Fewer Conditions

Pressure 29.94 in
Visibility 9.0 miles
Clouds Scattered Clouds 10000 ft
Heat Index 79 °F
Dew Point 54 °F
Humidity 43%
Rainfall 0.00 in
Snow Depth Not available.
UV 0 out of 12
Pollen 6.70 out of 12
Air Quality Not available.
Flu Activity Not available.
METAR KCID 230252Z 00000KT 9SM SCT100 24/24 A2996 RMK AO2 SLP137 T02390239 50009

More Conditions Fewer Conditions

10-Day Weather Forecast

Almanac

Astronomy

Aug. 22, 2014 Rise Set
Actual Time 6:22 AM CDT 7:56 PM CDT
Civil Twilight 5:53 AM CDT 8:26 PM CDT
Nautical Twilight 5:17 AM CDT 9:01 PM CDT
Astronomical Twilight 4:39 AM CDT 9:39 PM CDT
Moon 3:44 AM CDT (8/22) 6:06 PM CDT (8/22)
Length of Visible Light 14h 33m
Length of Day
13h 34m
Tomorrow will be 2m 37s shorter.
Waning Crescent, 5% of the Moon is Illuminated
Today
Waning Crescent
Aug 25
New
Sep 2
First Quarter
Sep 8
Full
Sep 15
Last Quarter

Today's Extremes

State Highs State Lows

Community

WunderPhotos

Upload Photos

1,746,352 photos uploaded!

WunderBlogs® & News

Nearby

Snow Depth

Station Depth Elevation
No new snow has been reported.

Earthquake Activity

City Distance Mag. Time & Date
No recent earthquake activity has been reported nearby.
Minimum magnitude displayed is 2.5.

Coastal Water Temperatures

Place Temperature
No Stations Reporting

Nearby Weather Stations